sensor_id;sensor_type;location;lat;lon;timestamp;P1;durP1;ratioP1;P2;durP2;ratioP2
46417;SDS011;69884;64.758;20.962;2023-06-24T00:00:11;1.40;;;1.30;;
46417;SDS011;69884;64.758;20.962;2023-06-24T00:02:37;1.45;;;1.35;;
46417;SDS011;69884;64.758;20.962;2023-06-24T00:05:09;3.70;;;1.70;;
46417;SDS011;69884;64.758;20.962;2023-06-24T00:07:34;1.67;;;1.33;;
46417;SDS011;69884;64.758;20.962;2023-06-24T00:10:09;3.33;;;1.43;;
46417;SDS011;69884;64.758;20.962;2023-06-24T00:15:37;2.05;;;1.83;;
46417;SDS011;69884;64.758;20.962;2023-06-24T00:18:06;1.85;;;1.67;;
46417;SDS011;69884;64.758;20.962;2023-06-24T00:20:31;1.90;;;1.80;;
46417;SDS011;69884;64.758;20.962;2023-06-24T00:23:06;2.05;;;1.70;;
46417;SDS011;69884;64.758;20.962;2023-06-24T00:25:33;2.22;;;2.00;;
46417;SDS011;69884;64.758;20.962;2023-06-24T00:28:04;2.33;;;2.13;;
46417;SDS011;69884;64.758;20.962;2023-06-24T00:30:37;2.35;;;1.90;;
46417;SDS011;69884;64.758;20.962;2023-06-24T00:33:03;2.00;;;1.90;;
46417;SDS011;69884;64.758;20.962;2023-06-24T00:35:37;2.30;;;2.10;;
46417;SDS011;69884;64.758;20.962;2023-06-24T00:38:03;2.50;;;2.08;;
46417;SDS011;69884;64.758;20.962;2023-06-24T00:40:31;2.22;;;2.00;;
46417;SDS011;69884;64.758;20.962;2023-06-24T00:42:59;2.47;;;2.27;;
46417;SDS011;69884;64.758;20.962;2023-06-24T00:45:45;2.78;;;2.40;;
46417;SDS011;69884;64.758;20.962;2023-06-24T00:48:16;2.60;;;2.17;;
46417;SDS011;69884;64.758;20.962;2023-06-24T00:51:03;4.18;;;2.20;;
46417;SDS011;69884;64.758;20.962;2023-06-24T00:53:38;2.58;;;1.88;;
46417;SDS011;69884;64.758;20.962;2023-06-24T00:56:35;2.17;;;2.03;;
46417;SDS011;69884;64.758;20.962;2023-06-24T00:59:03;2.50;;;2.30;;
46417;SDS011;69884;64.758;20.962;2023-06-24T01:01:41;2.40;;;2.20;;
46417;SDS011;69884;64.758;20.962;2023-06-24T01:04:24;4.78;;;2.40;;
46417;SDS011;69884;64.758;20.962;2023-06-24T01:09:34;3.33;;;2.30;;
46417;SDS011;69884;64.758;20.962;2023-06-24T01:12:09;2.50;;;2.30;;
46417;SDS011;69884;64.758;20.962;2023-06-24T01:14:58;2.90;;;2.60;;
46417;SDS011;69884;64.758;20.962;2023-06-24T01:36:48;3.20;;;2.80;;
46417;SDS011;69884;64.758;20.962;2023-06-24T01:39:23;3.22;;;2.75;;
46417;SDS011;69884;64.758;20.962;2023-06-24T01:42:08;2.80;;;2.60;;
46417;SDS011;69884;64.758;20.962;2023-06-24T01:45:00;3.30;;;3.00;;
46417;SDS011;69884;64.758;20.962;2023-06-24T01:48:28;2.80;;;2.60;;
46417;SDS011;69884;64.758;20.962;2023-06-24T01:51:01;3.10;;;2.80;;
46417;SDS011;69884;64.758;20.962;2023-06-24T01:53:56;2.72;;;2.53;;
46417;SDS011;69884;64.758;20.962;2023-06-24T02:00:11;2.70;;;2.50;;
46417;SDS011;69884;64.758;20.962;2023-06-24T02:14:56;2.67;;;2.38;;
46417;SDS011;69884;64.758;20.962;2023-06-24T02:21:03;2.90;;;2.58;;
46417;SDS011;69884;64.758;20.962;2023-06-24T02:39:49;3.13;;;2.80;;
46417;SDS011;69884;64.758;20.962;2023-06-24T02:54:52;2.83;;;2.58;;
46417;SDS011;69884;64.758;20.962;2023-06-24T02:57:48;2.90;;;2.35;;
46417;SDS011;69884;64.758;20.962;2023-06-24T05:17:55;1.60;;;1.00;;
46417;SDS011;69884;64.758;20.962;2023-06-24T05:27:05;2.67;;;1.10;;
46417;SDS011;69884;64.758;20.962;2023-06-24T05:29:34;0.97;;;0.80;;
46417;SDS011;69884;64.758;20.962;2023-06-24T05:32:11;1.00;;;1.00;;
46417;SDS011;69884;64.758;20.962;2023-06-24T05:35:06;1.50;;;1.08;;
46417;SDS011;69884;64.758;20.962;2023-06-24T05:38:51;1.13;;;1.02;;
46417;SDS011;69884;64.758;20.962;2023-06-24T05:44:52;1.95;;;1.08;;
46417;SDS011;69884;64.758;20.962;2023-06-24T05:47:17;1.50;;;0.95;;
46417;SDS011;69884;64.758;20.962;2023-06-24T05:56:03;1.13;;;1.02;;
46417;SDS011;69884;64.758;20.962;2023-06-24T05:58:46;1.17;;;1.08;;
46417;SDS011;69884;64.758;20.962;2023-06-24T06:01:14;1.20;;;0.98;;
46417;SDS011;69884;64.758;20.962;2023-06-24T06:03:40;1.33;;;0.97;;
46417;SDS011;69884;64.758;20.962;2023-06-24T06:08:50;1.17;;;1.08;;
46417;SDS011;69884;64.758;20.962;2023-06-24T06:23:28;0.90;;;0.90;;
46417;SDS011;69884;64.758;20.962;2023-06-24T06:29:31;2.28;;;1.00;;
46417;SDS011;69884;64.758;20.962;2023-06-24T06:41:10;0.80;;;0.80;;
46417;SDS011;69884;64.758;20.962;2023-06-24T06:49:54;1.75;;;0.90;;
46417;SDS011;69884;64.758;20.962;2023-06-24T07:13:26;0.90;;;0.70;;
46417;SDS011;69884;64.758;20.962;2023-06-24T07:16:23;0.90;;;0.80;;
46417;SDS011;69884;64.758;20.962;2023-06-24T07:19:08;0.77;;;0.60;;
46417;SDS011;69884;64.758;20.962;2023-06-24T07:24:44;0.70;;;0.60;;
46417;SDS011;69884;64.758;20.962;2023-06-24T07:27:29;1.37;;;0.73;;
46417;SDS011;69884;64.758;20.962;2023-06-24T07:29:54;1.27;;;0.80;;
46417;SDS011;69884;64.758;20.962;2023-06-24T07:38:40;1.40;;;0.50;;
46417;SDS011;69884;64.758;20.962;2023-06-24T07:41:05;0.80;;;0.60;;
46417;SDS011;69884;64.758;20.962;2023-06-24T07:43:43;0.90;;;0.50;;
46417;SDS011;69884;64.758;20.962;2023-06-24T07:46:08;1.00;;;0.60;;
46417;SDS011;69884;64.758;20.962;2023-06-24T07:48:48;1.00;;;0.60;;
46417;SDS011;69884;64.758;20.962;2023-06-24T07:54:14;0.77;;;0.50;;
46417;SDS011;69884;64.758;20.962;2023-06-24T07:56:48;0.60;;;0.60;;
46417;SDS011;69884;64.758;20.962;2023-06-24T07:59:17;0.77;;;0.50;;
46417;SDS011;69884;64.758;20.962;2023-06-24T08:01:51;0.93;;;0.60;;
46417;SDS011;69884;64.758;20.962;2023-06-24T08:04:25;1.10;;;0.50;;
46417;SDS011;69884;64.758;20.962;2023-06-24T08:07:06;1.10;;;0.60;;
46417;SDS011;69884;64.758;20.962;2023-06-24T08:09:58;0.68;;;0.60;;
46417;SDS011;69884;64.758;20.962;2023-06-24T08:12:38;1.90;;;0.70;;
46417;SDS011;69884;64.758;20.962;2023-06-24T08:15:06;0.55;;;0.50;;
46417;SDS011;69884;64.758;20.962;2023-06-24T08:23:51;1.20;;;0.50;;
46417;SDS011;69884;64.758;20.962;2023-06-24T09:14:15;0.60;;;0.60;;
46417;SDS011;69884;64.758;20.962;2023-06-24T09:16:41;0.70;;;0.70;;
46417;SDS011;69884;64.758;20.962;2023-06-24T09:19:06;1.00;;;0.70;;
46417;SDS011;69884;64.758;20.962;2023-06-24T09:21:31;1.23;;;0.80;;
46417;SDS011;69884;64.758;20.962;2023-06-24T09:23:57;1.98;;;0.77;;
46417;SDS011;69884;64.758;20.962;2023-06-24T09:32:44;1.08;;;0.93;;
46417;SDS011;69884;64.758;20.962;2023-06-24T09:50:22;1.98;;;1.40;;
46417;SDS011;69884;64.758;20.962;2023-06-24T09:59:42;1.73;;;1.50;;
46417;SDS011;69884;64.758;20.962;2023-06-24T10:02:19;1.90;;;1.20;;
46417;SDS011;69884;64.758;20.962;2023-06-24T10:08:08;1.77;;;1.50;;
46417;SDS011;69884;64.758;20.962;2023-06-24T10:13:53;3.25;;;1.50;;
46417;SDS011;69884;64.758;20.962;2023-06-24T10:16:42;1.55;;;1.40;;
46417;SDS011;69884;64.758;20.962;2023-06-24T10:25:35;1.63;;;1.40;;
46417;SDS011;69884;64.758;20.962;2023-06-24T10:28:20;1.97;;;1.40;;
46417;SDS011;69884;64.758;20.962;2023-06-24T10:31:06;1.55;;;1.38;;
46417;SDS011;69884;64.758;20.962;2023-06-24T10:33:41;1.77;;;1.30;;
46417;SDS011;69884;64.758;20.962;2023-06-24T10:47:53;1.20;;;1.10;;
46417;SDS011;69884;64.758;20.962;2023-06-24T10:50:21;1.50;;;1.33;;
46417;SDS011;69884;64.758;20.962;2023-06-24T10:52:51;1.45;;;1.10;;
46417;SDS011;69884;64.758;20.962;2023-06-24T10:55:23;1.83;;;1.42;;
46417;SDS011;69884;64.758;20.962;2023-06-24T10:57:50;1.30;;;1.20;;
46417;SDS011;69884;64.758;20.962;2023-06-24T11:00:16;1.50;;;1.40;;
46417;SDS011;69884;64.758;20.962;2023-06-24T11:02:42;2.30;;;1.70;;
46417;SDS011;69884;64.758;20.962;2023-06-24T11:05:07;2.60;;;1.30;;
46417;SDS011;69884;64.758;20.962;2023-06-24T11:07:34;3.50;;;1.40;;
46417;SDS011;69884;64.758;20.962;2023-06-24T11:10:04;1.60;;;1.50;;
46417;SDS011;69884;64.758;20.962;2023-06-24T11:12:31;2.30;;;1.40;;
46417;SDS011;69884;64.758;20.962;2023-06-24T11:14:57;1.40;;;1.30;;
46417;SDS011;69884;64.758;20.962;2023-06-24T11:17:26;2.40;;;1.50;;
46417;SDS011;69884;64.758;20.962;2023-06-24T11:19:55;2.05;;;1.50;;
46417;SDS011;69884;64.758;20.962;2023-06-24T11:22:21;1.77;;;1.50;;
46417;SDS011;69884;64.758;20.962;2023-06-24T11:24:46;1.83;;;1.43;;
46417;SDS011;69884;64.758;20.962;2023-06-24T11:27:12;1.65;;;1.55;;
46417;SDS011;69884;64.758;20.962;2023-06-24T11:29:37;1.87;;;1.60;;
46417;SDS011;69884;64.758;20.962;2023-06-24T11:32:03;1.47;;;1.33;;
46417;SDS011;69884;64.758;20.962;2023-06-24T11:34:34;3.83;;;3.30;;
46417;SDS011;69884;64.758;20.962;2023-06-24T11:37:12;5.20;;;4.70;;
46417;SDS011;69884;64.758;20.962;2023-06-24T11:39:38;4.45;;;4.10;;
46417;SDS011;69884;64.758;20.962;2023-06-24T11:42:05;4.03;;;3.73;;
46417;SDS011;69884;64.758;20.962;2023-06-24T11:44:30;3.92;;;3.53;;
46417;SDS011;69884;64.758;20.962;2023-06-24T11:47:03;4.30;;;3.67;;
46417;SDS011;69884;64.758;20.962;2023-06-24T11:49:28;4.32;;;3.92;;
46417;SDS011;69884;64.758;20.962;2023-06-24T11:51:54;4.35;;;3.95;;
46417;SDS011;69884;64.758;20.962;2023-06-24T11:54:20;4.97;;;4.57;;
46417;SDS011;69884;64.758;20.962;2023-06-24T11:56:49;5.03;;;4.63;;
46417;SDS011;69884;64.758;20.962;2023-06-24T11:59:19;4.93;;;4.47;;
46417;SDS011;69884;64.758;20.962;2023-06-24T12:01:45;4.32;;;3.92;;
46417;SDS011;69884;64.758;20.962;2023-06-24T12:04:14;4.65;;;4.25;;
46417;SDS011;69884;64.758;20.962;2023-06-24T12:06:42;4.50;;;4.10;;
46417;SDS011;69884;64.758;20.962;2023-06-24T12:09:08;4.03;;;3.72;;
46417;SDS011;69884;64.758;20.962;2023-06-24T12:11:33;3.90;;;3.60;;
46417;SDS011;69884;64.758;20.962;2023-06-24T12:13:59;4.00;;;3.70;;
46417;SDS011;69884;64.758;20.962;2023-06-24T12:16:24;4.07;;;3.77;;
46417;SDS011;69884;64.758;20.962;2023-06-24T12:18:53;4.30;;;3.90;;
46417;SDS011;69884;64.758;20.962;2023-06-24T12:21:19;4.03;;;3.70;;
46417;SDS011;69884;64.758;20.962;2023-06-24T12:23:44;3.90;;;3.60;;
46417;SDS011;69884;64.758;20.962;2023-06-24T12:26:10;3.63;;;3.23;;
46417;SDS011;69884;64.758;20.962;2023-06-24T12:28:36;3.67;;;3.37;;
46417;SDS011;69884;64.758;20.962;2023-06-24T12:31:01;3.60;;;3.30;;
46417;SDS011;69884;64.758;20.962;2023-06-24T12:33:26;4.00;;;3.70;;
46417;SDS011;69884;64.758;20.962;2023-06-24T12:36:02;3.33;;;3.03;;
46417;SDS011;69884;64.758;20.962;2023-06-24T12:41:23;3.40;;;3.10;;
46417;SDS011;69884;64.758;20.962;2023-06-24T12:47:17;3.10;;;2.80;;
46417;SDS011;69884;64.758;20.962;2023-06-24T12:49:55;3.00;;;2.80;;
46417;SDS011;69884;64.758;20.962;2023-06-24T12:52:23;2.83;;;2.63;;
46417;SDS011;69884;64.758;20.962;2023-06-24T12:54:51;2.85;;;2.55;;
46417;SDS011;69884;64.758;20.962;2023-06-24T12:57:19;3.00;;;2.60;;
46417;SDS011;69884;64.758;20.962;2023-06-24T12:59:45;3.45;;;2.75;;
46417;SDS011;69884;64.758;20.962;2023-06-24T13:02:10;2.80;;;2.60;;
46417;SDS011;69884;64.758;20.962;2023-06-24T13:04:35;2.63;;;2.42;;
46417;SDS011;69884;64.758;20.962;2023-06-24T13:07:01;2.80;;;2.50;;
46417;SDS011;69884;64.758;20.962;2023-06-24T13:09:26;2.60;;;2.33;;
46417;SDS011;69884;64.758;20.962;2023-06-24T13:11:52;2.87;;;2.40;;
46417;SDS011;69884;64.758;20.962;2023-06-24T13:14:17;2.30;;;2.10;;
46417;SDS011;69884;64.758;20.962;2023-06-24T13:16:43;3.08;;;2.08;;
46417;SDS011;69884;64.758;20.962;2023-06-24T13:19:08;2.90;;;2.35;;
46417;SDS011;69884;64.758;20.962;2023-06-24T13:21:34;2.72;;;2.53;;
46417;SDS011;69884;64.758;20.962;2023-06-24T13:23:59;2.70;;;2.50;;
46417;SDS011;69884;64.758;20.962;2023-06-24T13:26:24;2.60;;;2.40;;
46417;SDS011;69884;64.758;20.962;2023-06-24T13:28:50;4.10;;;2.60;;
46417;SDS011;69884;64.758;20.962;2023-06-24T13:31:15;3.23;;;2.40;;
46417;SDS011;69884;64.758;20.962;2023-06-24T13:33:41;2.50;;;2.30;;
46417;SDS011;69884;64.758;20.962;2023-06-24T13:36:07;3.60;;;2.50;;
46417;SDS011;69884;64.758;20.962;2023-06-24T13:38:32;2.60;;;2.40;;
46417;SDS011;69884;64.758;20.962;2023-06-24T13:40:57;2.43;;;2.23;;
46417;SDS011;69884;64.758;20.962;2023-06-24T13:43:23;2.50;;;2.30;;
46417;SDS011;69884;64.758;20.962;2023-06-24T13:45:48;3.60;;;3.30;;
46417;SDS011;69884;64.758;20.962;2023-06-24T13:48:13;4.70;;;4.30;;
46417;SDS011;69884;64.758;20.962;2023-06-24T13:50:39;9.60;;;8.60;;
46417;SDS011;69884;64.758;20.962;2023-06-24T13:53:04;10.97;;;9.77;;
46417;SDS011;69884;64.758;20.962;2023-06-24T13:55:30;12.20;;;10.30;;
46417;SDS011;69884;64.758;20.962;2023-06-24T13:57:56;12.77;;;11.38;;
46417;SDS011;69884;64.758;20.962;2023-06-24T14:00:21;13.50;;;12.10;;
46417;SDS011;69884;64.758;20.962;2023-06-24T14:02:47;12.50;;;11.20;;
46417;SDS011;69884;64.758;20.962;2023-06-24T14:05:12;13.15;;;11.75;;
46417;SDS011;69884;64.758;20.962;2023-06-24T14:07:37;12.30;;;11.00;;
46417;SDS011;69884;64.758;20.962;2023-06-24T14:10:03;12.47;;;11.17;;
46417;SDS011;69884;64.758;20.962;2023-06-24T14:12:29;12.23;;;11.02;;
46417;SDS011;69884;64.758;20.962;2023-06-24T14:15:28;13.73;;;12.32;;
46417;SDS011;69884;64.758;20.962;2023-06-24T14:17:55;14.20;;;12.80;;
46417;SDS011;69884;64.758;20.962;2023-06-24T14:20:21;13.93;;;12.57;;
46417;SDS011;69884;64.758;20.962;2023-06-24T14:22:46;11.85;;;10.75;;
46417;SDS011;69884;64.758;20.962;2023-06-24T14:25:11;12.80;;;11.60;;
46417;SDS011;69884;64.758;20.962;2023-06-24T14:27:37;13.00;;;11.70;;
46417;SDS011;69884;64.758;20.962;2023-06-24T14:30:02;12.23;;;11.03;;
46417;SDS011;69884;64.758;20.962;2023-06-24T14:32:28;11.60;;;10.48;;
46417;SDS011;69884;64.758;20.962;2023-06-24T14:34:53;11.75;;;10.55;;
46417;SDS011;69884;64.758;20.962;2023-06-24T14:37:18;10.37;;;9.40;;
46417;SDS011;69884;64.758;20.962;2023-06-24T14:39:44;10.52;;;9.52;;
46417;SDS011;69884;64.758;20.962;2023-06-24T14:42:09;10.70;;;9.70;;
46417;SDS011;69884;64.758;20.962;2023-06-24T14:44:34;9.80;;;8.87;;
46417;SDS011;69884;64.758;20.962;2023-06-24T14:47:00;10.43;;;9.43;;
46417;SDS011;69884;64.758;20.962;2023-06-24T14:49:25;9.40;;;8.50;;
46417;SDS011;69884;64.758;20.962;2023-06-24T14:51:51;10.53;;;9.43;;
46417;SDS011;69884;64.758;20.962;2023-06-24T14:54:16;10.10;;;9.10;;
46417;SDS011;69884;64.758;20.962;2023-06-24T14:56:42;10.43;;;9.43;;
46417;SDS011;69884;64.758;20.962;2023-06-24T15:02:19;10.52;;;9.43;;
46417;SDS011;69884;64.758;20.962;2023-06-24T15:04:45;10.07;;;9.07;;
46417;SDS011;69884;64.758;20.962;2023-06-24T15:07:10;10.67;;;9.47;;
46417;SDS011;69884;64.758;20.962;2023-06-24T15:09:36;10.30;;;9.20;;
46417;SDS011;69884;64.758;20.962;2023-06-24T15:12:01;9.53;;;8.63;;
46417;SDS011;69884;64.758;20.962;2023-06-24T15:14:27;9.50;;;8.60;;
46417;SDS011;69884;64.758;20.962;2023-06-24T15:16:52;9.97;;;8.97;;
46417;SDS011;69884;64.758;20.962;2023-06-24T15:19:19;9.48;;;8.57;;
46417;SDS011;69884;64.758;20.962;2023-06-24T15:21:44;8.87;;;7.97;;
46417;SDS011;69884;64.758;20.962;2023-06-24T15:24:10;9.37;;;8.47;;
46417;SDS011;69884;64.758;20.962;2023-06-24T15:26:35;10.20;;;9.20;;
46417;SDS011;69884;64.758;20.962;2023-06-24T15:29:00;9.67;;;8.67;;
46417;SDS011;69884;64.758;20.962;2023-06-24T15:31:26;10.37;;;9.37;;
46417;SDS011;69884;64.758;20.962;2023-06-24T15:33:54;9.82;;;8.90;;
46417;SDS011;69884;64.758;20.962;2023-06-24T15:36:20;9.75;;;8.75;;
46417;SDS011;69884;64.758;20.962;2023-06-24T15:38:47;10.10;;;9.10;;
46417;SDS011;69884;64.758;20.962;2023-06-24T15:41:13;9.53;;;8.63;;
46417;SDS011;69884;64.758;20.962;2023-06-24T15:43:39;10.50;;;9.50;;
46417;SDS011;69884;64.758;20.962;2023-06-24T15:52:44;10.73;;;9.68;;
46417;SDS011;69884;64.758;20.962;2023-06-24T15:55:08;11.65;;;10.55;;
46417;SDS011;69884;64.758;20.962;2023-06-24T15:57:39;11.95;;;10.75;;
46417;SDS011;69884;64.758;20.962;2023-06-24T16:00:07;11.13;;;10.02;;
46417;SDS011;69884;64.758;20.962;2023-06-24T16:02:33;11.03;;;9.93;;
46417;SDS011;69884;64.758;20.962;2023-06-24T16:04:58;10.70;;;9.60;;
46417;SDS011;69884;64.758;20.962;2023-06-24T16:07:24;11.00;;;9.93;;
46417;SDS011;69884;64.758;20.962;2023-06-24T16:09:52;10.77;;;9.67;;
46417;SDS011;69884;64.758;20.962;2023-06-24T16:12:17;10.85;;;9.75;;
46417;SDS011;69884;64.758;20.962;2023-06-24T16:14:43;10.97;;;9.87;;
46417;SDS011;69884;64.758;20.962;2023-06-24T16:17:14;10.75;;;9.68;;
46417;SDS011;69884;64.758;20.962;2023-06-24T16:19:49;10.93;;;9.70;;
46417;SDS011;69884;64.758;20.962;2023-06-24T16:22:40;10.95;;;9.77;;
46417;SDS011;69884;64.758;20.962;2023-06-24T16:25:08;10.87;;;9.77;;
46417;SDS011;69884;64.758;20.962;2023-06-24T16:27:41;10.80;;;9.68;;
46417;SDS011;69884;64.758;20.962;2023-06-24T16:30:09;10.83;;;9.73;;
46417;SDS011;69884;64.758;20.962;2023-06-24T16:32:44;9.93;;;8.90;;
46417;SDS011;69884;64.758;20.962;2023-06-24T16:35:12;9.85;;;8.85;;
46417;SDS011;69884;64.758;20.962;2023-06-24T16:37:38;9.27;;;8.37;;
46417;SDS011;69884;64.758;20.962;2023-06-24T16:40:13;9.15;;;8.25;;
46417;SDS011;69884;64.758;20.962;2023-06-24T16:43:19;9.00;;;8.10;;
46417;SDS011;69884;64.758;20.962;2023-06-24T16:48:59;9.50;;;8.47;;
46417;SDS011;69884;64.758;20.962;2023-06-24T16:51:44;9.20;;;8.30;;
46417;SDS011;69884;64.758;20.962;2023-06-24T16:59:58;10.20;;;9.20;;
46417;SDS011;69884;64.758;20.962;2023-06-24T17:02:38;10.52;;;9.45;;
46417;SDS011;69884;64.758;20.962;2023-06-24T17:11:11;9.82;;;8.82;;
46417;SDS011;69884;64.758;20.962;2023-06-24T17:13:57;9.88;;;8.10;;
46417;SDS011;69884;64.758;20.962;2023-06-24T17:17:06;9.00;;;8.10;;
46417;SDS011;69884;64.758;20.962;2023-06-24T17:19:46;9.35;;;7.47;;
46417;SDS011;69884;64.758;20.962;2023-06-24T17:22:21;6.82;;;6.13;;
46417;SDS011;69884;64.758;20.962;2023-06-24T17:25:13;7.57;;;6.88;;
46417;SDS011;69884;64.758;20.962;2023-06-24T17:31:28;7.73;;;7.03;;
46417;SDS011;69884;64.758;20.962;2023-06-24T17:37:00;6.82;;;6.13;;
46417;SDS011;69884;64.758;20.962;2023-06-24T17:45:46;6.43;;;5.82;;
46417;SDS011;69884;64.758;20.962;2023-06-24T17:58:15;5.57;;;4.90;;
46417;SDS011;69884;64.758;20.962;2023-06-24T18:00:42;6.07;;;5.25;;
46417;SDS011;69884;64.758;20.962;2023-06-24T18:15:42;4.82;;;4.20;;
46417;SDS011;69884;64.758;20.962;2023-06-24T18:18:31;4.50;;;4.10;;
46417;SDS011;69884;64.758;20.962;2023-06-24T18:24:37;3.17;;;2.87;;
46417;SDS011;69884;64.758;20.962;2023-06-24T18:27:10;3.42;;;2.97;;
46417;SDS011;69884;64.758;20.962;2023-06-24T18:30:01;3.03;;;2.40;;
46417;SDS011;69884;64.758;20.962;2023-06-24T18:33:03;2.83;;;2.55;;
46417;SDS011;69884;64.758;20.962;2023-06-24T18:41:54;2.10;;;1.40;;
46417;SDS011;69884;64.758;20.962;2023-06-24T18:44:19;1.50;;;1.17;;
46417;SDS011;69884;64.758;20.962;2023-06-24T18:46:47;2.37;;;1.17;;
46417;SDS011;69884;64.758;20.962;2023-06-24T18:49:24;1.23;;;1.13;;
46417;SDS011;69884;64.758;20.962;2023-06-24T18:51:49;1.38;;;1.02;;
46417;SDS011;69884;64.758;20.962;2023-06-24T18:54:17;1.60;;;1.10;;
46417;SDS011;69884;64.758;20.962;2023-06-24T18:56:50;0.90;;;0.90;;
46417;SDS011;69884;64.758;20.962;2023-06-24T18:59:21;0.90;;;0.90;;
46417;SDS011;69884;64.758;20.962;2023-06-24T19:05:00;1.40;;;0.95;;
46417;SDS011;69884;64.758;20.962;2023-06-24T19:07:38;0.90;;;0.90;;
46417;SDS011;69884;64.758;20.962;2023-06-24T19:10:11;1.63;;;1.00;;
46417;SDS011;69884;64.758;20.962;2023-06-24T19:12:39;1.40;;;0.90;;
46417;SDS011;69884;64.758;20.962;2023-06-24T19:15:18;1.00;;;0.90;;
46417;SDS011;69884;64.758;20.962;2023-06-24T19:17:47;0.70;;;0.70;;
46417;SDS011;69884;64.758;20.962;2023-06-24T19:20:30;2.50;;;0.82;;
46417;SDS011;69884;64.758;20.962;2023-06-24T19:23:01;2.13;;;0.80;;
46417;SDS011;69884;64.758;20.962;2023-06-24T19:25:41;0.80;;;0.73;;
46417;SDS011;69884;64.758;20.962;2023-06-24T19:28:22;0.65;;;0.65;;
46417;SDS011;69884;64.758;20.962;2023-06-24T19:30:47;1.75;;;0.70;;
46417;SDS011;69884;64.758;20.962;2023-06-24T19:33:13;0.70;;;0.70;;
46417;SDS011;69884;64.758;20.962;2023-06-24T19:35:41;0.60;;;0.60;;
46417;SDS011;69884;64.758;20.962;2023-06-24T19:38:12;0.90;;;0.70;;
46417;SDS011;69884;64.758;20.962;2023-06-24T19:40:45;1.25;;;0.98;;
46417;SDS011;69884;64.758;20.962;2023-06-24T19:43:17;1.40;;;0.82;;
46417;SDS011;69884;64.758;20.962;2023-06-24T19:45:49;0.80;;;0.80;;
46417;SDS011;69884;64.758;20.962;2023-06-24T19:48:17;0.82;;;0.82;;
46417;SDS011;69884;64.758;20.962;2023-06-24T19:51:03;0.82;;;0.82;;
46417;SDS011;69884;64.758;20.962;2023-06-24T19:53:38;1.63;;;0.83;;
46417;SDS011;69884;64.758;20.962;2023-06-24T19:56:03;0.98;;;0.70;;
46417;SDS011;69884;64.758;20.962;2023-06-24T20:01:22;1.20;;;0.90;;
46417;SDS011;69884;64.758;20.962;2023-06-24T20:10:05;1.20;;;0.80;;
46417;SDS011;69884;64.758;20.962;2023-06-24T20:15:36;0.95;;;0.90;;
46417;SDS011;69884;64.758;20.962;2023-06-24T20:18:05;1.40;;;1.10;;
46417;SDS011;69884;64.758;20.962;2023-06-24T20:20:38;0.98;;;0.90;;
46417;SDS011;69884;64.758;20.962;2023-06-24T20:23:09;0.95;;;0.90;;
46417;SDS011;69884;64.758;20.962;2023-06-24T20:25:57;0.90;;;0.90;;
46417;SDS011;69884;64.758;20.962;2023-06-24T20:34:42;1.50;;;0.90;;
46417;SDS011;69884;64.758;20.962;2023-06-24T20:40:18;1.40;;;0.83;;
46417;SDS011;69884;64.758;20.962;2023-06-24T20:48:57;0.85;;;0.85;;
46417;SDS011;69884;64.758;20.962;2023-06-24T20:51:29;1.83;;;1.00;;
46417;SDS011;69884;64.758;20.962;2023-06-24T20:57:03;2.53;;;1.10;;
46417;SDS011;69884;64.758;20.962;2023-06-24T20:59:40;1.50;;;1.02;;
46417;SDS011;69884;64.758;20.962;2023-06-24T21:08:16;1.90;;;0.90;;
46417;SDS011;69884;64.758;20.962;2023-06-24T21:10:45;0.90;;;0.90;;
46417;SDS011;69884;64.758;20.962;2023-06-24T21:13:10;0.80;;;0.80;;
46417;SDS011;69884;64.758;20.962;2023-06-24T21:16:16;1.40;;;0.93;;
46417;SDS011;69884;64.758;20.962;2023-06-24T21:18:52;1.42;;;1.00;;
46417;SDS011;69884;64.758;20.962;2023-06-24T21:21:17;1.30;;;0.95;;
46417;SDS011;69884;64.758;20.962;2023-06-24T21:23:48;1.52;;;1.10;;
46417;SDS011;69884;64.758;20.962;2023-06-24T21:28:58;2.20;;;1.30;;
46417;SDS011;69884;64.758;20.962;2023-06-24T21:31:45;1.35;;;1.17;;
46417;SDS011;69884;64.758;20.962;2023-06-24T21:34:20;1.10;;;1.00;;
46417;SDS011;69884;64.758;20.962;2023-06-24T21:36:45;1.77;;;1.20;;
46417;SDS011;69884;64.758;20.962;2023-06-24T21:42:36;1.77;;;1.20;;
46417;SDS011;69884;64.758;20.962;2023-06-24T21:45:12;1.10;;;0.98;;
46417;SDS011;69884;64.758;20.962;2023-06-24T21:47:40;1.50;;;1.20;;
46417;SDS011;69884;64.758;20.962;2023-06-24T21:50:08;1.75;;;1.10;;
46417;SDS011;69884;64.758;20.962;2023-06-24T21:52:47;1.27;;;1.02;;
46417;SDS011;69884;64.758;20.962;2023-06-24T21:58:07;1.27;;;1.15;;
46417;SDS011;69884;64.758;20.962;2023-06-24T22:00:40;1.00;;;1.00;;
46417;SDS011;69884;64.758;20.962;2023-06-24T22:03:10;1.30;;;1.20;;
46417;SDS011;69884;64.758;20.962;2023-06-24T22:05:49;1.40;;;1.30;;
46417;SDS011;69884;64.758;20.962;2023-06-24T22:08:32;1.15;;;1.15;;
46417;SDS011;69884;64.758;20.962;2023-06-24T22:10:58;1.67;;;1.20;;
46417;SDS011;69884;64.758;20.962;2023-06-24T22:13:34;1.60;;;1.10;;
46417;SDS011;69884;64.758;20.962;2023-06-24T22:16:02;1.40;;;1.30;;
46417;SDS011;69884;64.758;20.962;2023-06-24T22:21:13;1.80;;;1.20;;
46417;SDS011;69884;64.758;20.962;2023-06-24T22:23:45;1.60;;;1.20;;
46417;SDS011;69884;64.758;20.962;2023-06-24T22:26:28;2.17;;;1.05;;
46417;SDS011;69884;64.758;20.962;2023-06-24T22:28:56;1.20;;;1.10;;
46417;SDS011;69884;64.758;20.962;2023-06-24T22:31:34;1.00;;;1.00;;
46417;SDS011;69884;64.758;20.962;2023-06-24T22:34:02;1.25;;;1.10;;
46417;SDS011;69884;64.758;20.962;2023-06-24T22:36:46;1.25;;;1.15;;
46417;SDS011;69884;64.758;20.962;2023-06-24T22:39:24;1.30;;;1.20;;
46417;SDS011;69884;64.758;20.962;2023-06-24T22:41:52;1.00;;;1.00;;
46417;SDS011;69884;64.758;20.962;2023-06-24T22:44:20;1.40;;;1.20;;
46417;SDS011;69884;64.758;20.962;2023-06-24T22:46:45;1.40;;;1.30;;
46417;SDS011;69884;64.758;20.962;2023-06-24T22:49:13;1.80;;;1.30;;
46417;SDS011;69884;64.758;20.962;2023-06-24T22:51:47;1.42;;;1.33;;
46417;SDS011;69884;64.758;20.962;2023-06-24T22:54:20;1.35;;;1.25;;
46417;SDS011;69884;64.758;20.962;2023-06-24T22:56:58;1.30;;;1.20;;
46417;SDS011;69884;64.758;20.962;2023-06-24T22:59:26;1.48;;;1.38;;
46417;SDS011;69884;64.758;20.962;2023-06-24T23:02:09;1.27;;;1.15;;
46417;SDS011;69884;64.758;20.962;2023-06-24T23:04:37;1.50;;;1.40;;
46417;SDS011;69884;64.758;20.962;2023-06-24T23:07:11;1.95;;;1.20;;
46417;SDS011;69884;64.758;20.962;2023-06-24T23:09:51;1.40;;;1.27;;
46417;SDS011;69884;64.758;20.962;2023-06-24T23:12:28;1.40;;;1.30;;
46417;SDS011;69884;64.758;20.962;2023-06-24T23:14:55;1.10;;;1.10;;
46417;SDS011;69884;64.758;20.962;2023-06-24T23:17:23;1.50;;;1.38;;
46417;SDS011;69884;64.758;20.962;2023-06-24T23:19:56;2.08;;;1.27;;
46417;SDS011;69884;64.758;20.962;2023-06-24T23:22:30;1.10;;;1.10;;
46417;SDS011;69884;64.758;20.962;2023-06-24T23:24:56;1.40;;;1.30;;
46417;SDS011;69884;64.758;20.962;2023-06-24T23:27:39;1.40;;;1.30;;
46417;SDS011;69884;64.758;20.962;2023-06-24T23:30:05;1.45;;;1.35;;
46417;SDS011;69884;64.758;20.962;2023-06-24T23:32:35;1.35;;;1.23;;
46417;SDS011;69884;64.758;20.962;2023-06-24T23:35:22;1.50;;;1.40;;
46417;SDS011;69884;64.758;20.962;2023-06-24T23:37:47;1.20;;;1.20;;
46417;SDS011;69884;64.758;20.962;2023-06-24T23:40:18;1.75;;;1.30;;
46417;SDS011;69884;64.758;20.962;2023-06-24T23:42:46;1.70;;;1.35;;
46417;SDS011;69884;64.758;20.962;2023-06-24T23:45:16;2.00;;;1.40;;